createdAt,value
2024-03-12T00:01:36.813Z,15.57
2024-03-12T00:04:06.382Z,15.47
2024-03-12T00:06:34.314Z,16.23
2024-03-12T00:09:01.265Z,17.03
2024-03-12T00:11:29.300Z,17.97
2024-03-12T00:13:57.493Z,17.33
2024-03-12T00:16:25.463Z,16.90
2024-03-12T00:18:54.604Z,16.17
2024-03-12T00:21:24.225Z,16.77
2024-03-12T00:23:52.386Z,18.27
2024-03-12T00:26:20.367Z,16.43
2024-03-12T00:28:48.778Z,18.93
2024-03-12T00:31:17.629Z,16.00
2024-03-12T00:33:48.623Z,17.07
2024-03-12T00:36:17.913Z,18.23
2024-03-12T00:38:47.868Z,18.83
2024-03-12T00:41:16.287Z,17.10
2024-03-12T00:43:44.505Z,18.10
2024-03-12T00:46:12.826Z,18.57
2024-03-12T00:48:40.902Z,18.00
2024-03-12T00:51:09.915Z,19.23
2024-03-12T00:53:37.936Z,20.50
2024-03-12T00:56:07.853Z,18.93
2024-03-12T00:58:37.564Z,20.43
2024-03-12T01:01:05.845Z,19.03
2024-03-12T01:03:35.389Z,18.27
2024-03-12T01:06:03.467Z,21.93
2024-03-12T01:08:32.899Z,18.80
2024-03-12T01:11:00.856Z,20.50
2024-03-12T01:13:30.145Z,20.73
2024-03-12T01:15:59.039Z,22.87
2024-03-12T01:18:27.012Z,21.27
2024-03-12T01:20:54.964Z,21.57
2024-03-12T01:23:22.879Z,21.10
2024-03-12T01:25:50.836Z,20.57
2024-03-12T01:28:18.888Z,22.93
2024-03-12T01:30:48.311Z,25.23
2024-03-12T01:33:19.193Z,23.57
2024-03-12T01:35:48.020Z,25.57
2024-03-12T01:38:16.011Z,24.50
2024-03-12T01:40:43.964Z,25.20
2024-03-12T01:43:13.672Z,25.03
2024-03-12T01:45:43.357Z,24.77
2024-03-12T01:48:13.677Z,24.87
2024-03-12T01:50:42.249Z,24.50
2024-03-12T01:53:10.931Z,26.53
2024-03-12T01:55:44.739Z,28.33
2024-03-12T01:58:16.886Z,25.53
2024-03-12T02:00:46.131Z,26.90
2024-03-12T02:03:19.991Z,26.47
2024-03-12T02:05:48.603Z,27.47
2024-03-12T02:08:17.665Z,28.67
2024-03-12T02:10:46.716Z,32.40
2024-03-12T02:13:15.078Z,29.80
2024-03-12T02:15:44.188Z,31.40
2024-03-12T02:18:12.851Z,32.77
2024-03-12T02:20:42.246Z,31.73
2024-03-12T02:23:10.205Z,32.93
2024-03-12T02:25:39.463Z,33.13
2024-03-12T02:28:07.820Z,31.07
2024-03-12T02:30:36.002Z,32.90
2024-03-12T02:33:04.645Z,33.73
2024-03-12T02:35:35.504Z,33.53
2024-03-12T02:38:03.532Z,31.87
2024-03-12T02:40:31.472Z,32.10
2024-03-12T02:43:00.936Z,34.90
2024-03-12T02:45:29.275Z,36.37
2024-03-12T02:47:57.471Z,33.73
2024-03-12T02:50:25.888Z,32.87
2024-03-12T02:52:53.928Z,33.97
2024-03-12T02:55:22.289Z,34.37
2024-03-12T02:57:50.253Z,32.67
2024-03-12T03:00:20.730Z,33.17
2024-03-12T03:02:48.738Z,32.80
2024-03-12T03:05:16.704Z,30.63
2024-03-12T03:07:44.676Z,32.17
2024-03-12T03:10:13.999Z,31.60
2024-03-12T03:12:42.726Z,31.70
2024-03-12T03:15:13.286Z,35.60
2024-03-12T03:17:45.001Z,32.53
2024-03-12T03:20:15.529Z,33.00
2024-03-12T03:22:43.735Z,34.90
2024-03-12T03:25:14.433Z,37.27
2024-03-12T03:27:43.050Z,37.37
2024-03-12T03:30:14.058Z,33.07
2024-03-12T03:32:43.637Z,34.60
2024-03-12T03:35:14.218Z,35.40
2024-03-12T03:37:43.829Z,35.97
2024-03-12T03:40:18.745Z,34.37
2024-03-12T03:42:46.981Z,33.07
2024-03-12T03:45:15.008Z,35.13
2024-03-12T03:47:44.486Z,41.67
2024-03-12T03:50:12.788Z,37.80
2024-03-12T03:52:41.258Z,36.17
2024-03-12T03:55:11.164Z,37.03
2024-03-12T03:57:39.350Z,35.07
2024-03-12T04:00:13.955Z,34.67
2024-03-12T04:02:44.725Z,33.03
2024-03-12T04:05:13.269Z,34.37
2024-03-12T04:07:41.944Z,34.10
2024-03-12T04:10:12.400Z,36.83
2024-03-12T04:12:41.527Z,38.20
2024-03-12T04:15:10.860Z,37.70
2024-03-12T04:17:39.202Z,35.70
2024-03-12T04:20:10.799Z,39.17
2024-03-12T04:22:39.450Z,43.23
2024-03-12T04:25:09.416Z,42.47
2024-03-12T04:27:38.113Z,41.17
2024-03-12T04:30:07.210Z,38.63
2024-03-12T04:32:36.506Z,48.00
2024-03-12T04:35:06.267Z,38.43
2024-03-12T04:37:35.721Z,43.90
2024-03-12T04:40:08.123Z,43.63
2024-03-12T04:42:36.860Z,46.20
2024-03-12T04:45:06.750Z,41.67
2024-03-12T04:47:36.628Z,43.87
2024-03-12T04:50:05.491Z,45.30
2024-03-12T04:52:35.866Z,46.00
2024-03-12T04:55:06.220Z,43.83
2024-03-12T04:57:36.449Z,46.83
2024-03-12T05:00:14.383Z,45.77
2024-03-12T05:02:42.567Z,45.90
2024-03-12T05:05:12.855Z,45.27
2024-03-12T05:07:42.134Z,43.27
2024-03-12T05:10:12.523Z,48.27
2024-03-12T05:12:41.656Z,45.33
2024-03-12T05:15:10.268Z,44.10
2024-03-12T05:17:38.732Z,46.93
2024-03-12T05:20:10.540Z,47.13
2024-03-12T05:22:38.852Z,48.70
2024-03-12T05:25:11.569Z,53.43
2024-03-12T05:27:39.792Z,48.73
2024-03-12T05:30:12.155Z,51.67
2024-03-12T05:32:42.314Z,53.87
2024-03-12T05:35:18.545Z,54.77
2024-03-12T05:38:00.751Z,51.57
2024-03-12T05:40:41.236Z,52.00
2024-03-12T05:43:29.831Z,51.30
2024-03-12T05:46:15.512Z,53.33
2024-03-12T05:48:43.712Z,57.83
2024-03-12T05:51:11.750Z,55.93
2024-03-12T05:53:39.949Z,54.73
2024-03-12T05:56:13.453Z,54.17
2024-03-12T05:58:42.867Z,48.97
2024-03-12T06:01:10.932Z,56.40
2024-03-12T06:03:40.246Z,55.33
2024-03-12T06:06:08.763Z,54.67
2024-03-12T06:08:37.145Z,55.10
2024-03-12T06:11:05.470Z,57.90
2024-03-12T06:13:34.866Z,58.00
2024-03-12T06:16:02.802Z,55.03
2024-03-12T06:18:30.811Z,57.17
2024-03-12T06:20:58.973Z,65.22
2024-03-12T06:23:27.094Z,62.27
2024-03-12T06:25:55.433Z,57.70
2024-03-12T06:28:27.072Z,61.00
2024-03-12T06:30:57.142Z,58.40
2024-03-12T06:33:25.116Z,56.90
2024-03-12T06:35:53.053Z,58.53
2024-03-12T06:38:21.905Z,58.33
2024-03-12T06:40:50.074Z,55.77
2024-03-12T06:43:19.418Z,56.17
2024-03-12T06:45:48.069Z,57.27
2024-03-12T06:48:20.258Z,56.07
2024-03-12T06:50:48.370Z,52.57
2024-03-12T06:53:16.885Z,51.90
2024-03-12T06:55:46.800Z,54.90
2024-03-12T06:58:19.993Z,56.43
2024-03-12T07:00:49.424Z,51.60
2024-03-12T07:03:19.774Z,49.77
2024-03-12T07:05:49.570Z,58.90
2024-03-12T07:08:18.999Z,47.53
2024-03-12T07:10:47.479Z,49.60
2024-03-12T07:13:16.017Z,51.07
2024-03-12T07:15:46.184Z,48.17
2024-03-12T07:18:15.485Z,47.93
2024-03-12T07:20:45.247Z,45.97
2024-03-12T07:23:14.881Z,42.77
2024-03-12T07:25:44.383Z,39.27
2024-03-12T07:28:14.099Z,49.80
2024-03-12T07:30:42.409Z,42.77
2024-03-12T07:33:11.048Z,42.87
2024-03-12T07:35:39.009Z,44.70
2024-03-12T07:38:08.607Z,45.90
2024-03-12T07:40:36.673Z,45.50
2024-03-12T07:43:05.699Z,40.70
2024-03-12T07:45:33.980Z,41.93
2024-03-12T07:48:02.063Z,42.83
2024-03-12T07:50:33.042Z,37.13
2024-03-12T07:53:01.328Z,40.27
2024-03-12T07:55:30.664Z,34.10
2024-03-12T07:57:59.149Z,40.10
2024-03-12T08:00:27.176Z,35.63
2024-03-12T08:02:55.148Z,36.67
2024-03-12T08:05:24.493Z,33.27
2024-03-12T08:07:53.430Z,33.33
2024-03-12T08:10:21.504Z,31.23
2024-03-12T08:12:50.870Z,34.20
2024-03-12T08:15:18.911Z,30.37
2024-03-12T08:17:48.377Z,30.10
2024-03-12T08:20:18.684Z,28.23
2024-03-12T08:22:48.475Z,29.50
2024-03-12T08:27:45.878Z,29.90
2024-03-12T08:30:16.321Z,28.47
2024-03-12T08:32:44.611Z,25.83
2024-03-12T08:35:12.802Z,28.70
2024-03-12T08:37:40.794Z,24.80
2024-03-12T08:40:12.804Z,22.53
2024-03-12T08:42:47.686Z,24.60
2024-03-12T08:45:24.846Z,20.80
2024-03-12T08:47:53.205Z,21.17
2024-03-12T08:50:21.247Z,20.33
2024-03-12T08:52:49.190Z,19.40
2024-03-12T08:55:17.965Z,19.90
2024-03-12T08:57:46.113Z,19.23
2024-03-12T09:00:15.173Z,19.03
2024-03-12T09:02:44.519Z,19.73
2024-03-12T09:05:13.380Z,22.33
2024-03-12T09:07:42.946Z,16.80
2024-03-12T09:10:13.823Z,15.90
2024-03-12T09:12:42.862Z,16.37
2024-03-12T09:15:11.536Z,16.83
2024-03-12T09:17:41.210Z,13.80
2024-03-12T09:20:12.233Z,15.03
2024-03-12T09:22:40.766Z,15.43
2024-03-12T09:25:10.577Z,17.33
2024-03-12T09:27:39.345Z,13.97
2024-03-12T09:30:09.297Z,14.83
2024-03-12T09:32:37.292Z,16.97
2024-03-12T09:35:05.810Z,12.63
2024-03-12T09:37:37.035Z,13.37
2024-03-12T09:40:09.328Z,14.93
2024-03-12T09:42:39.243Z,15.03
2024-03-12T09:45:09.462Z,14.80
2024-03-12T09:47:38.002Z,13.87
2024-03-12T09:50:11.857Z,13.07
2024-03-12T09:52:42.421Z,12.17
2024-03-12T09:55:12.123Z,11.73
2024-03-12T09:57:42.531Z,14.73
2024-03-12T10:00:13.666Z,12.33
2024-03-12T10:02:42.473Z,15.77
2024-03-12T10:05:11.343Z,15.50
2024-03-12T10:08:01.781Z,15.43
2024-03-12T10:10:31.083Z,16.10
2024-03-12T10:12:59.692Z,16.57
2024-03-12T10:15:27.626Z,15.47
2024-03-12T10:18:00.347Z,17.07
2024-03-12T10:20:28.390Z,14.60
2024-03-12T10:23:10.568Z,18.27
2024-03-12T10:25:39.273Z,20.60
2024-03-12T10:28:08.615Z,18.83
2024-03-12T10:30:38.036Z,17.47
2024-03-12T10:33:18.198Z,18.53
2024-03-12T10:35:47.454Z,16.07
2024-03-12T10:38:27.678Z,19.20
2024-03-12T10:40:57.964Z,18.00
2024-03-12T10:43:26.407Z,19.00
2024-03-12T10:45:55.688Z,17.23
2024-03-12T10:48:24.687Z,20.80
2024-03-12T10:50:55.105Z,17.30
2024-03-12T10:53:26.246Z,18.10
2024-03-12T10:55:55.245Z,18.90
2024-03-12T10:58:24.662Z,18.63
2024-03-12T11:00:52.944Z,19.27
2024-03-12T11:03:24.334Z,21.80
2024-03-12T11:05:55.965Z,19.93
2024-03-12T11:08:25.921Z,20.30
2024-03-12T11:10:54.910Z,20.90
2024-03-12T11:13:22.982Z,16.90
2024-03-12T11:15:51.032Z,19.60
2024-03-12T11:18:34.384Z,19.63
2024-03-12T11:21:04.933Z,19.57
2024-03-12T11:23:34.335Z,22.43
2024-03-12T11:26:06.507Z,20.67
2024-03-12T11:28:34.556Z,21.53
2024-03-12T11:31:05.302Z,17.83
2024-03-12T11:33:50.932Z,24.10
2024-03-12T11:36:24.041Z,19.10
2024-03-12T11:38:54.148Z,19.07
2024-03-12T11:41:22.694Z,21.47
2024-03-12T11:43:50.800Z,26.83
2024-03-12T11:46:22.146Z,25.23
2024-03-12T11:48:51.011Z,24.40
2024-03-12T11:51:19.771Z,31.47
2024-03-12T11:53:48.727Z,23.60
2024-03-12T11:56:20.779Z,20.73
2024-03-12T11:58:59.265Z,20.33
2024-03-12T12:01:33.924Z,23.27
2024-03-12T12:04:05.891Z,21.37
2024-03-12T12:06:34.856Z,22.33
2024-03-12T12:09:06.337Z,24.30
2024-03-12T12:11:37.897Z,18.80
2024-03-12T12:14:09.284Z,23.33
2024-03-12T12:16:37.690Z,19.47
2024-03-12T12:19:07.743Z,60.43
2024-03-12T12:21:36.715Z,46.63
2024-03-12T12:24:05.544Z,32.77
2024-03-12T12:26:37.149Z,24.80
2024-03-12T12:29:06.157Z,23.20
2024-03-12T12:31:37.797Z,25.90
2024-03-12T12:34:07.947Z,25.30
2024-03-12T12:36:39.680Z,22.33
2024-03-12T12:39:11.578Z,20.13
2024-03-12T12:41:45.290Z,24.40
2024-03-12T12:44:17.461Z,19.10
2024-03-12T12:46:47.574Z,20.87
2024-03-12T12:49:16.625Z,19.37
2024-03-12T12:51:47.374Z,19.70
2024-03-12T12:54:18.935Z,18.87
2024-03-12T12:56:50.190Z,18.97
2024-03-12T12:59:21.213Z,21.93
2024-03-12T13:01:50.374Z,21.10
2024-03-12T13:04:23.985Z,17.77
2024-03-12T13:06:55.055Z,21.17
2024-03-12T13:09:34.492Z,17.20
2024-03-12T13:12:08.468Z,20.53
2024-03-12T13:14:37.875Z,18.07
2024-03-12T13:17:07.119Z,16.00
2024-03-12T13:19:35.267Z,13.37
2024-03-12T13:22:07.862Z,15.30
2024-03-12T13:24:43.565Z,17.43
2024-03-12T13:27:13.527Z,15.97
2024-03-12T13:29:43.698Z,17.90
2024-03-12T13:32:12.578Z,16.67
2024-03-12T13:34:40.955Z,19.97
2024-03-12T13:37:09.196Z,19.37
2024-03-12T13:39:37.226Z,16.47
2024-03-12T13:42:06.760Z,17.00
2024-03-12T13:44:38.484Z,20.60
2024-03-12T13:47:07.391Z,17.33
2024-03-12T13:49:35.621Z,19.90
2024-03-12T13:52:03.950Z,20.30
2024-03-12T13:54:32.245Z,22.60
2024-03-12T13:57:00.329Z,19.00
2024-03-12T13:59:28.800Z,16.83
2024-03-12T14:01:58.843Z,20.37
2024-03-12T14:04:32.250Z,20.33
2024-03-12T14:07:00.864Z,18.47
2024-03-12T14:09:28.915Z,17.63
2024-03-12T14:11:57.334Z,18.90
2024-03-12T14:14:25.303Z,18.83
2024-03-12T14:16:53.304Z,19.23
2024-03-12T14:19:22.699Z,19.90
2024-03-12T14:21:50.854Z,20.43
2024-03-12T14:24:18.883Z,18.80
2024-03-12T14:26:46.942Z,19.07
2024-03-12T14:29:15.097Z,18.50
2024-03-12T14:31:43.365Z,19.93
2024-03-12T14:34:11.907Z,20.40
2024-03-12T14:36:41.315Z,20.93
2024-03-12T14:39:11.710Z,22.53
2024-03-12T14:41:39.848Z,18.50
2024-03-12T14:44:08.972Z,22.83
2024-03-12T14:46:37.101Z,22.10
2024-03-12T14:49:05.902Z,20.80
2024-03-12T14:51:35.010Z,26.07
2024-03-12T14:54:04.505Z,25.67
2024-03-12T14:56:32.830Z,27.00
2024-03-12T14:59:00.761Z,22.67
2024-03-12T15:01:28.935Z,24.30
2024-03-12T15:03:58.310Z,25.73
2024-03-12T15:06:26.458Z,25.77
2024-03-12T15:08:55.278Z,22.50
2024-03-12T15:11:24.718Z,26.10
2024-03-12T15:13:52.703Z,23.17
2024-03-12T15:16:21.781Z,25.57
2024-03-12T15:18:50.390Z,21.23
2024-03-12T15:21:19.041Z,23.00
2024-03-12T15:23:47.430Z,25.00
2024-03-12T15:26:15.525Z,24.73
2024-03-12T15:28:44.905Z,26.37
2024-03-12T15:31:13.154Z,26.17
2024-03-12T15:33:41.358Z,25.27
2024-03-12T15:36:10.032Z,23.83
2024-03-12T15:38:38.095Z,23.37
2024-03-12T15:41:07.278Z,27.87
2024-03-12T15:43:35.524Z,27.10
2024-03-12T15:46:06.795Z,26.67
2024-03-12T15:48:34.857Z,23.10
2024-03-12T15:51:04.309Z,25.03
2024-03-12T15:53:32.822Z,27.83
2024-03-12T15:56:00.805Z,26.77
2024-03-12T15:58:31.920Z,26.93
2024-03-12T16:01:00.220Z,29.83
2024-03-12T16:03:29.573Z,28.20
2024-03-12T16:05:57.563Z,30.07
2024-03-12T16:08:26.937Z,27.43
2024-03-12T16:10:55.002Z,26.73
2024-03-12T16:13:23.028Z,29.63
2024-03-12T16:15:54.037Z,26.10
2024-03-12T16:18:22.278Z,25.70
2024-03-12T16:20:51.779Z,27.27
2024-03-12T16:23:19.928Z,32.10
2024-03-12T16:25:47.885Z,32.10
2024-03-12T16:28:15.974Z,49.73
2024-03-12T16:30:44.117Z,30.97
2024-03-12T16:33:12.275Z,29.33
2024-03-12T16:35:41.390Z,29.93
2024-03-12T16:38:13.682Z,29.63
2024-03-12T16:40:42.288Z,27.77
2024-03-12T16:43:10.393Z,32.07
2024-03-12T16:45:38.349Z,32.23
2024-03-12T16:48:08.135Z,30.07
2024-03-12T16:50:36.344Z,31.77
2024-03-12T16:53:05.197Z,35.37
2024-03-12T16:55:35.194Z,28.17
2024-03-12T16:58:03.887Z,34.57
2024-03-12T17:00:32.244Z,30.23
2024-03-12T17:03:01.298Z,34.90
2024-03-12T17:05:30.102Z,31.10
2024-03-12T17:07:59.590Z,29.67
2024-03-12T17:10:28.029Z,30.60
2024-03-12T17:12:58.142Z,31.33
2024-03-12T17:15:26.776Z,31.83
2024-03-12T17:17:55.076Z,30.63
2024-03-12T17:20:24.847Z,32.13
2024-03-12T17:22:53.458Z,32.13
2024-03-12T17:25:22.355Z,33.00
2024-03-12T17:27:52.879Z,33.67
2024-03-12T17:30:25.573Z,32.40
2024-03-12T17:32:55.506Z,33.63
2024-03-12T17:35:24.782Z,31.77
2024-03-12T17:37:59.427Z,32.23
2024-03-12T17:40:28.801Z,33.97
2024-03-12T17:43:01.020Z,30.80
2024-03-12T17:45:32.639Z,31.10
2024-03-12T17:48:02.829Z,33.30
2024-03-12T17:50:31.594Z,32.87
2024-03-12T17:53:01.490Z,33.47
2024-03-12T17:55:30.420Z,31.17
2024-03-12T17:58:01.370Z,31.40
2024-03-12T18:00:32.890Z,31.23
2024-03-12T18:03:01.549Z,33.50
2024-03-12T18:05:29.867Z,30.57
2024-03-12T18:08:02.810Z,33.60
2024-03-12T18:10:33.396Z,34.67
2024-03-12T18:13:01.951Z,38.27
2024-03-12T18:15:31.340Z,32.73
2024-03-12T18:18:01.868Z,30.97
2024-03-12T18:20:31.816Z,33.57
2024-03-12T18:23:00.394Z,34.27
2024-03-12T18:25:28.426Z,44.13
2024-03-12T18:27:57.722Z,36.20
2024-03-12T18:30:27.983Z,35.97
2024-03-12T18:32:57.309Z,33.10
2024-03-12T18:35:25.423Z,33.57
2024-03-12T18:37:53.401Z,32.30
2024-03-12T18:40:23.086Z,32.17
2024-03-12T18:42:51.983Z,31.37
2024-03-12T18:45:21.163Z,30.03
2024-03-12T18:47:51.069Z,31.13
2024-03-12T18:50:25.123Z,32.37
2024-03-12T18:52:53.755Z,27.20
2024-03-12T18:55:23.222Z,30.17
2024-03-12T18:57:52.237Z,27.97
2024-03-12T19:00:24.177Z,30.80
2024-03-12T19:02:53.929Z,28.60
2024-03-12T19:05:25.549Z,29.07
2024-03-12T19:07:56.183Z,33.80
2024-03-12T19:10:29.832Z,32.93
2024-03-12T19:12:59.090Z,35.35
2024-03-12T19:15:34.672Z,35.43
2024-03-12T19:18:05.852Z,31.90
2024-03-12T19:20:36.049Z,33.63
2024-03-12T19:23:04.662Z,33.77
2024-03-12T19:25:32.700Z,32.57
2024-03-12T19:28:00.913Z,34.87
2024-03-12T19:30:29.499Z,38.50
2024-03-12T19:32:58.236Z,38.40
2024-03-12T19:35:27.199Z,37.07
2024-03-12T19:37:59.135Z,32.43
2024-03-12T19:40:27.596Z,38.47
2024-03-12T19:42:57.979Z,39.13
2024-03-12T19:45:28.753Z,35.13
2024-03-12T19:47:58.165Z,35.97
2024-03-12T19:50:27.646Z,36.87
2024-03-12T19:52:57.640Z,39.53
2024-03-12T19:55:27.063Z,38.47
2024-03-12T19:57:57.186Z,37.50
2024-03-12T20:00:27.652Z,36.57
2024-03-12T20:02:56.628Z,35.00
2024-03-12T20:05:25.626Z,39.97
2024-03-12T20:07:55.840Z,37.23
2024-03-12T20:10:26.499Z,34.63
2024-03-12T20:12:56.540Z,38.90
2024-03-12T20:15:25.404Z,34.83
2024-03-12T20:17:53.621Z,31.20
2024-03-12T20:20:23.392Z,29.67
2024-03-12T20:22:52.625Z,31.23
2024-03-12T20:25:22.766Z,33.20
2024-03-12T20:27:54.953Z,33.23
2024-03-12T20:30:27.303Z,33.30
2024-03-12T20:32:57.057Z,34.40
2024-03-12T20:35:25.224Z,32.40
2024-03-12T20:37:53.424Z,33.40
2024-03-12T20:40:23.600Z,38.17
2024-03-12T20:42:53.378Z,38.13
2024-03-12T20:45:22.433Z,37.23
2024-03-12T20:47:50.567Z,32.30
2024-03-12T20:50:19.886Z,31.37
2024-03-12T20:52:48.487Z,31.53
2024-03-12T20:55:16.879Z,36.73
2024-03-12T20:57:48.208Z,34.67
2024-03-12T21:04:45.036Z,39.20
2024-03-12T21:07:13.418Z,37.00
2024-03-12T21:09:43.153Z,33.77
2024-03-12T21:12:11.128Z,38.57
2024-03-12T21:14:39.567Z,39.23
2024-03-12T21:17:07.605Z,38.70
2024-03-12T21:19:35.516Z,33.20
2024-03-12T21:22:08.348Z,44.93
2024-03-12T21:24:37.611Z,37.53
2024-03-12T21:27:07.021Z,35.83
2024-03-12T21:29:35.127Z,38.63
2024-03-12T21:32:03.070Z,37.03
2024-03-12T21:34:30.995Z,33.17
2024-03-12T21:36:59.984Z,38.33
2024-03-12T21:39:29.271Z,38.87
2024-03-12T21:41:57.569Z,35.70
2024-03-12T21:44:28.573Z,34.87
2024-03-12T21:46:56.621Z,35.80
2024-03-12T21:49:24.648Z,35.87
2024-03-12T21:51:54.445Z,32.53
2024-03-12T21:54:23.192Z,37.10
2024-03-12T21:56:53.537Z,36.47
2024-03-12T21:59:21.505Z,34.57
2024-03-12T22:01:49.545Z,34.13
2024-03-12T22:04:17.576Z,34.57
2024-03-12T22:06:46.397Z,32.80
2024-03-12T22:09:14.345Z,35.60
2024-03-12T22:11:43.152Z,33.00
2024-03-12T22:14:12.933Z,35.50
2024-03-12T22:16:42.699Z,34.47
2024-03-12T22:19:15.206Z,33.30
2024-03-12T22:21:45.552Z,32.30
2024-03-12T22:24:17.932Z,33.67
2024-03-12T22:26:47.641Z,31.23
2024-03-12T22:29:16.906Z,35.17
2024-03-12T22:31:45.258Z,28.47
2024-03-12T22:34:14.015Z,31.13
2024-03-12T22:36:42.192Z,31.67
2024-03-12T22:39:11.008Z,32.30
2024-03-12T22:41:44.653Z,31.57
2024-03-12T22:44:12.934Z,29.53
2024-03-12T22:46:43.613Z,30.83
2024-03-12T22:49:11.888Z,33.27
2024-03-12T22:51:41.267Z,34.90
2024-03-12T22:54:11.560Z,29.60
2024-03-12T22:56:40.367Z,31.53
2024-03-12T22:59:08.914Z,35.40
2024-03-12T23:01:40.796Z,28.20
2024-03-12T23:04:10.500Z,35.30
2024-03-12T23:06:38.734Z,31.53
2024-03-12T23:09:09.083Z,31.87
2024-03-12T23:11:37.098Z,32.53
2024-03-12T23:14:05.791Z,27.87
2024-03-12T23:16:34.105Z,28.30
2024-03-12T23:19:02.103Z,31.50
2024-03-12T23:21:31.519Z,32.13
2024-03-12T23:23:59.805Z,30.40
2024-03-12T23:26:29.559Z,29.53
2024-03-12T23:28:59.467Z,30.97
2024-03-12T23:31:27.512Z,28.13
2024-03-12T23:33:56.307Z,27.27
2024-03-12T23:36:28.426Z,35.00
2024-03-12T23:38:57.796Z,30.43
2024-03-12T23:41:25.862Z,31.87
2024-03-12T23:43:56.013Z,31.83
2024-03-12T23:46:24.066Z,27.73
2024-03-12T23:48:52.081Z,30.30
2024-03-12T23:51:20.070Z,30.37
2024-03-12T23:53:48.238Z,32.60
2024-03-12T23:56:17.531Z,28.83
2024-03-12T23:58:45.441Z,33.13
